Weather
Algoa Flying ClubBookingsEnt 1064(rendered 2017-02-22 05:52:05) Member: Guest [54.146.176.30- private]
Go back one day  Today  Go forward one day
00h00-24h00  00h00-12h00  12h00-24h00  06h00-22h00  08h00-18h00   Bookingsheet Key 

Sunrise: 05:59B

Full view Bookings for Wednesday, 22nd February 2017

AFC WEEKEND AWAY 24-26 FEB 2017 - SEE YOU THERE

Sunset: 19:02B

 06h0007h0008h0009h0010h0011h0012h0013h0014h0015h0016h0017h0018h0019h0020h0021h00

ZU-WCG

Airplane company NTCA

Booked

Booked

Booked

ZS-KEO

Cessna C152 Single Engine

Booked

ZS-MXS

Cessna C152 Single Engine

Booked

Booked

Booked

ZS-PKO

Cessna C152 Single Engine

Booked

ZS-PKS

Cessna C152 Single Engine

ZS-KSF

Cessna C172 Single Engine 4 seater

ZS-MBP

Cessna C172 Single Engine 4 seater

Booked

ZS-KND

Cessna C72R Complex Single Engine

Elite S812 SE

Elite Simulators FNPTII

Booked

Elite S812 ME

Elite Simulators FNPT II

ZS-IHX

Beechcraft Multi Engine Piston

FAPE METAR 220330Z 25003KT CAVOK 14/13 Q1018 NOSIG
FAGG METAR 220330Z 00000KT 9999 FEW030 13/13 Q1017

Clayton Staples

CEO / Flight Instructor Gr II

Booked

Booked

Booked

Booked

Mike Thompson

Chief Flight Instructor

Russell Abrey

Flight Instructor Gr II

Booked

Booked

Booked

Booked

Alex Todd

Flight Instructor Gr ll

Russell Phillips

Flight Instructor Gr II

Dave Anderson

Flight Instructor Gr II

Dale Miskin

Briefing / Groundschool

Abraham Muhumuza

Briefing / Ground School

Booked

Booked

Booked

Booked

Booked

Stephan Smit

MADIBA SIM STUDENTS ONLY

Sophia Sudak

TEFL ENGLISH TEACHER

George Stewart

DFE

Tony van Vliet

DFE

FAPE TAF 212200Z 2200/2224 09015KT 9999 BKN035    TX26/2212ZTN15/2204Z
FAGG TAF 212200Z 2200/2224 10005KT 9999 FEW025    PROB30 TEMPO 2200/2205 BKN010    BECMG 2213/2215 13015KT    TX25/2212ZTN15/2204Z

Exam Station 1

CAA Exams

Exam Station 2

CAA Exams

Exam Station 3

CAA Exams

Upstairs Lecture

Upstairs

Booked

Booked

Down Lecture Roo

Downstairs

Booked

Booked

Booked

Logger

GPS Logger

Clubhouse

Functions

Braai Area

Outdoor Braai

Gremlins Grotto

Pub

 06h0007h0008h0009h0010h0011h0012h0013h0014h0015h0016h0017h0018h0019h0020h0021h00

index.php last modified on Wed 13 Jun 2012 7:48 PM